createdAt,value
2023-04-28T05:03:37.519Z,651.00
2023-04-28T05:04:38.535Z,652.00
2023-04-28T05:05:38.432Z,653.00
2023-04-28T05:06:38.510Z,653.00
2023-04-28T05:07:37.500Z,650.00
2023-04-28T05:08:38.523Z,652.00
2023-04-28T05:09:38.577Z,648.00
2023-04-28T05:10:38.541Z,647.00
2023-04-28T05:11:37.583Z,649.00
2023-04-28T05:12:37.590Z,649.00
2023-04-28T05:13:38.645Z,649.00
2023-04-28T05:14:37.689Z,651.00
2023-04-28T05:15:38.749Z,653.00
2023-04-28T05:16:38.896Z,654.00
2023-04-28T05:17:37.942Z,654.00
2023-04-28T05:18:37.955Z,656.00
2023-04-28T05:19:39.061Z,656.00
2023-04-28T05:20:38.027Z,655.00
2023-04-28T05:21:39.097Z,654.00
2023-04-28T05:22:38.137Z,653.00
2023-04-28T05:23:38.213Z,654.00
2023-04-28T05:24:39.241Z,652.00
2023-04-28T05:25:39.294Z,653.00
2023-04-28T05:26:38.342Z,654.00
2023-04-28T05:27:39.477Z,671.00
2023-04-28T05:28:39.431Z,713.00
2023-04-28T05:29:38.517Z,717.00
2023-04-28T05:30:39.530Z,715.00
2023-04-28T05:31:39.603Z,714.00
2023-04-28T05:32:39.617Z,753.00
2023-04-28T05:33:39.668Z,771.00
2023-04-28T05:34:39.682Z,839.00
2023-04-28T05:35:38.802Z,875.00
2023-04-28T05:36:39.723Z,859.00
2023-04-28T05:37:39.743Z,860.00
2023-04-28T05:38:39.759Z,870.00
2023-04-28T05:39:38.789Z,945.00
2023-04-28T05:40:39.812Z,950.00
2023-04-28T05:41:39.810Z,988.00
2023-04-28T05:42:39.815Z,989.00
2023-04-28T05:43:39.815Z,1042.00
2023-04-28T05:44:41.800Z,1029.00
2023-04-28T05:45:39.856Z,1027.00
2023-04-28T05:46:38.945Z,1027.00
2023-04-28T05:47:39.842Z,1031.00
2023-04-28T05:48:38.879Z,1039.00
2023-04-28T05:49:39.781Z,1058.00
2023-04-28T05:50:39.767Z,1087.00
2023-04-28T05:51:38.793Z,1104.00
2023-04-28T05:52:39.761Z,1112.00
2023-04-28T05:53:39.744Z,1115.00
2023-04-28T05:54:38.728Z,1129.00
2023-04-28T05:55:39.746Z,1170.00
2023-04-28T05:56:39.713Z,1208.00
2023-04-28T05:57:51.803Z,1309.00
2023-04-28T05:58:39.747Z,1306.00
2023-04-28T05:59:39.711Z,1339.00
2023-04-28T06:00:39.740Z,1426.00
2023-04-28T06:01:38.681Z,1323.00
2023-04-28T06:02:39.776Z,1070.00
2023-04-28T06:03:40.114Z,1071.00
2023-04-28T06:04:39.923Z,1221.00
2023-04-28T06:05:39.016Z,1252.00
2023-04-28T06:06:39.848Z,1298.00
2023-04-28T06:07:39.687Z,1315.00
2023-04-28T06:08:38.644Z,1391.00
2023-04-28T06:09:38.624Z,1426.00
2023-04-28T06:10:38.620Z,1441.00
2023-04-28T06:11:38.741Z,1479.00
2023-04-28T06:12:39.615Z,1501.00
2023-04-28T06:13:39.649Z,1556.00
2023-04-28T06:14:38.601Z,1597.00
2023-04-28T06:15:39.677Z,1609.00
2023-04-28T06:16:39.572Z,1690.00
2023-04-28T06:17:39.691Z,1721.00
2023-04-28T06:18:38.573Z,1737.00
2023-04-28T06:19:39.552Z,1779.00
2023-04-28T06:20:39.549Z,1811.00
2023-04-28T06:21:38.589Z,1831.00
2023-04-28T06:22:38.544Z,1842.00
2023-04-28T06:23:38.574Z,1863.00
2023-04-28T06:24:39.509Z,1931.00
2023-04-28T06:25:38.534Z,1970.00
2023-04-28T06:26:38.553Z,2004.00
2023-04-28T06:27:38.551Z,2020.00
2023-04-28T06:28:39.501Z,2044.00
2023-04-28T06:29:39.497Z,2062.00
2023-04-28T06:30:39.510Z,2081.00
2023-04-28T06:31:38.644Z,2104.00
2023-04-28T06:32:38.659Z,2130.00
2023-04-28T06:33:38.547Z,2153.00
2023-04-28T06:34:38.552Z,2220.00
2023-04-28T06:35:39.505Z,2253.00
2023-04-28T06:36:38.550Z,2387.00
2023-04-28T06:37:39.504Z,2397.00
2023-04-28T06:38:38.594Z,2414.00
2023-04-28T06:39:38.606Z,2426.00
2023-04-28T06:40:39.613Z,2456.00
2023-04-28T06:41:38.662Z,2491.00
2023-04-28T06:42:38.724Z,2513.00
2023-04-28T06:43:38.778Z,2580.00
2023-04-28T06:44:39.736Z,2593.00
2023-04-28T06:45:39.736Z,2645.00
2023-04-28T06:46:39.771Z,2662.00
2023-04-28T06:47:38.835Z,2679.00
2023-04-28T06:48:38.725Z,2699.00
2023-04-28T06:49:44.808Z,2724.00
2023-04-28T06:50:41.174Z,2754.00
2023-04-28T06:51:39.715Z,2811.00
2023-04-28T06:52:40.063Z,2812.00
2023-04-28T06:53:38.688Z,1902.00
2023-04-28T06:54:39.903Z,1368.00
2023-04-28T06:55:39.729Z,1103.00
2023-04-28T06:56:39.719Z,1301.00
2023-04-28T06:57:39.703Z,1453.00
2023-04-28T06:58:39.654Z,1491.00
2023-04-28T06:59:38.657Z,1552.00
2023-04-28T07:00:39.687Z,1639.00
2023-04-28T07:01:39.740Z,1694.00
2023-04-28T07:02:39.773Z,1735.00
2023-04-28T07:03:38.937Z,1777.00
2023-04-28T07:04:38.632Z,1806.00
2023-04-28T07:05:39.593Z,1828.00
2023-04-28T07:06:38.611Z,1863.00
2023-04-28T07:07:38.622Z,1897.00
2023-04-28T07:08:38.567Z,1933.00
2023-04-28T07:09:38.583Z,1973.00
2023-04-28T07:10:38.582Z,2040.00
2023-04-28T07:11:39.573Z,2052.00
2023-04-28T07:12:38.578Z,2081.00
2023-04-28T07:13:39.532Z,2131.00
2023-04-28T07:14:39.545Z,2150.00
2023-04-28T07:15:39.532Z,2216.00
2023-04-28T07:16:38.634Z,2232.00
2023-04-28T07:17:39.565Z,2254.00
2023-04-28T07:18:38.534Z,2281.00
2023-04-28T07:19:39.486Z,2322.00
2023-04-28T07:20:39.490Z,2335.00
2023-04-28T07:21:38.476Z,2352.00
2023-04-28T07:22:39.490Z,2376.00
2023-04-28T07:23:39.462Z,2400.00
2023-04-28T07:24:39.479Z,2426.00
2023-04-28T07:25:39.437Z,2469.00
2023-04-28T07:26:38.442Z,2523.00
2023-04-28T07:27:38.443Z,2555.00
2023-04-28T07:28:38.420Z,2584.00
2023-04-28T07:29:38.413Z,2602.00
2023-04-28T07:30:38.418Z,2634.00
2023-04-28T07:31:39.434Z,2660.00
2023-04-28T07:32:39.426Z,2678.00
2023-04-28T07:33:39.391Z,2723.00
2023-04-28T07:34:38.406Z,2736.00
2023-04-28T07:35:39.365Z,2749.00
2023-04-28T07:36:39.371Z,2777.00
2023-04-28T07:37:39.353Z,2806.00
2023-04-28T07:38:39.336Z,2832.00
2023-04-28T07:39:38.371Z,2858.00
2023-04-28T07:40:39.329Z,2881.00
2023-04-28T07:41:38.384Z,2900.00
2023-04-28T07:42:38.406Z,2925.00
2023-04-28T07:43:39.490Z,2955.00
2023-04-28T07:44:39.538Z,2989.00
2023-04-28T07:45:39.746Z,3046.00
2023-04-28T07:46:39.641Z,3053.00
2023-04-28T07:47:39.678Z,2246.00
2023-04-28T07:48:39.679Z,1800.00
2023-04-28T07:49:40.003Z,1331.00
2023-04-28T07:50:39.708Z,1136.00
2023-04-28T07:51:39.762Z,1349.00
2023-04-28T07:52:39.804Z,1221.00
2023-04-28T07:53:39.017Z,1198.00
2023-04-28T07:54:39.098Z,1141.00
2023-04-28T07:55:40.959Z,1167.00
2023-04-28T07:56:39.242Z,1093.00
2023-04-28T07:57:39.324Z,1083.00
2023-04-28T07:58:39.996Z,1212.00
2023-04-28T07:59:38.998Z,1207.00
2023-04-28T08:00:40.955Z,1075.00
2023-04-28T08:01:38.939Z,1098.00
2023-04-28T08:02:39.082Z,945.00
2023-04-28T08:03:39.740Z,929.00
2023-04-28T08:04:40.035Z,906.00
2023-04-28T08:05:38.994Z,894.00
2023-04-28T08:06:39.946Z,783.00
2023-04-28T08:07:39.990Z,827.00
2023-04-28T08:08:38.996Z,773.00
2023-04-28T08:09:39.040Z,770.00
2023-04-28T08:10:39.076Z,757.00
2023-04-28T08:11:40.127Z,732.00
2023-04-28T08:12:40.149Z,697.00
2023-04-28T08:13:40.207Z,697.00
2023-04-28T08:14:40.246Z,656.00
2023-04-28T08:15:40.307Z,656.00
2023-04-28T08:16:40.313Z,651.00
2023-04-28T08:17:40.423Z,656.00
2023-04-28T08:18:40.427Z,644.00
2023-04-28T08:19:40.453Z,633.00
2023-04-28T08:20:40.497Z,619.00
2023-04-28T08:21:40.537Z,604.00
2023-04-28T08:22:40.594Z,600.00
2023-04-28T08:23:40.671Z,597.00
2023-04-28T08:24:39.713Z,587.00
2023-04-28T08:25:40.783Z,576.00
2023-04-28T08:26:39.824Z,569.00
2023-04-28T08:27:40.880Z,563.00
2023-04-28T08:28:40.959Z,561.00
2023-04-28T08:29:40.994Z,559.00
2023-04-28T08:30:41.059Z,554.00
2023-04-28T08:31:41.260Z,549.00
2023-04-28T08:32:41.212Z,550.00
2023-04-28T08:33:40.273Z,545.00
2023-04-28T08:34:41.320Z,543.00
2023-04-28T08:35:41.412Z,540.00
2023-04-28T08:36:41.440Z,534.00
2023-04-28T08:37:41.512Z,535.00
2023-04-28T08:38:40.585Z,548.00
2023-04-28T08:39:40.629Z,548.00
2023-04-28T08:40:40.686Z,550.00
2023-04-28T08:41:40.742Z,555.00
2023-04-28T08:42:40.811Z,562.00
2023-04-28T08:43:41.905Z,563.00
2023-04-28T08:44:41.936Z,576.00
2023-04-28T08:45:40.827Z,705.00
2023-04-28T08:46:40.877Z,699.00
2023-04-28T08:47:41.952Z,718.00
2023-04-28T08:48:40.954Z,816.00
2023-04-28T08:49:42.100Z,855.00
2023-04-28T08:50:41.014Z,923.00
2023-04-28T08:51:42.160Z,936.00
2023-04-28T08:52:41.025Z,962.00
2023-04-28T08:54:06.195Z,1059.00
2023-04-28T08:54:42.028Z,1096.00
2023-04-28T08:55:42.457Z,1115.00
2023-04-28T08:56:41.049Z,1176.00
2023-04-28T08:57:41.507Z,1169.00
2023-04-28T08:58:42.039Z,1173.00
2023-04-28T08:59:40.993Z,1176.00
2023-04-28T09:00:41.972Z,1179.00
2023-04-28T09:01:42.045Z,1182.00
2023-04-28T09:02:42.175Z,1184.00
2023-04-28T09:03:42.129Z,1184.00
2023-04-28T09:04:42.077Z,1185.00
2023-04-28T09:05:42.101Z,1189.00
2023-04-28T09:06:41.928Z,1193.00
2023-04-28T09:07:41.932Z,1194.00
2023-04-28T09:08:40.931Z,1192.00
2023-04-28T09:09:41.997Z,1195.00
2023-04-28T09:10:41.920Z,1194.00
2023-04-28T09:11:41.906Z,1195.00
2023-04-28T09:12:41.906Z,1196.00
2023-04-28T09:13:40.895Z,1199.00
2023-04-28T09:14:41.885Z,1203.00
2023-04-28T09:15:41.892Z,1203.00
2023-04-28T09:16:42.017Z,1206.00
2023-04-28T09:17:40.881Z,1207.00
2023-04-28T09:18:41.851Z,1203.00
2023-04-28T09:19:41.890Z,1200.00
2023-04-28T09:20:40.857Z,1197.00
2023-04-28T09:21:40.835Z,1197.00
2023-04-28T09:22:41.899Z,1195.00
2023-04-28T09:23:41.819Z,1195.00
2023-04-28T09:24:41.833Z,1193.00
2023-04-28T09:25:41.860Z,1192.00
2023-04-28T09:26:41.802Z,1191.00
2023-04-28T09:27:40.801Z,1193.00
2023-04-28T09:28:41.796Z,1198.00
2023-04-28T09:29:40.768Z,1197.00
2023-04-28T09:30:40.793Z,1198.00
2023-04-28T09:31:41.801Z,1197.00
2023-04-28T09:32:41.778Z,1195.00
2023-04-28T09:33:40.776Z,1193.00
2023-04-28T09:34:40.793Z,1195.00
2023-04-28T09:35:41.874Z,1198.00
2023-04-28T09:36:41.860Z,1205.00
2023-04-28T09:37:41.947Z,1208.00
2023-04-28T09:38:41.974Z,1211.00
2023-04-28T09:39:40.996Z,1219.00
2023-04-28T09:40:41.054Z,1218.00
2023-04-28T09:41:42.082Z,1219.00
2023-04-28T09:42:42.107Z,1214.00
2023-04-28T09:43:42.183Z,1217.00
2023-04-28T09:44:42.207Z,1224.00
2023-04-28T09:45:42.240Z,1224.00
2023-04-28T09:46:42.308Z,1228.00
2023-04-28T09:47:42.370Z,1235.00
2023-04-28T09:48:41.388Z,1313.00
2023-04-28T09:49:41.419Z,1302.00
2023-04-28T09:50:42.473Z,1280.00
2023-04-28T09:51:42.549Z,925.00
2023-04-28T09:52:42.546Z,886.00
2023-04-28T09:53:42.545Z,898.00
2023-04-28T09:54:42.610Z,1062.00
2023-04-28T09:55:42.632Z,1151.00
2023-04-28T09:56:41.667Z,1168.00
2023-04-28T09:57:41.716Z,1200.00
2023-04-28T09:58:42.792Z,1216.00
2023-04-28T09:59:42.828Z,1235.00
2023-04-28T10:00:42.872Z,1237.00
2023-04-28T10:01:43.106Z,1254.00
2023-04-28T10:02:44.023Z,1258.00
2023-04-28T10:03:43.286Z,1266.00
2023-04-28T10:04:42.100Z,1279.00
2023-04-28T10:05:43.072Z,1290.00
2023-04-28T10:06:42.995Z,1293.00
2023-04-28T10:07:41.999Z,1316.00
2023-04-28T10:08:42.990Z,1320.00
2023-04-28T10:09:43.003Z,1336.00
2023-04-28T10:10:42.054Z,1346.00
2023-04-28T10:11:42.073Z,1356.00
2023-04-28T10:12:43.092Z,1373.00
2023-04-28T10:13:43.111Z,1391.00
2023-04-28T10:14:43.336Z,1405.00
2023-04-28T10:15:42.190Z,1409.00
2023-04-28T10:16:43.223Z,1409.00
2023-04-28T10:17:42.314Z,1419.00
2023-04-28T10:18:42.341Z,1433.00
2023-04-28T10:19:42.444Z,1437.00
2023-04-28T10:20:42.474Z,1456.00
2023-04-28T10:21:43.554Z,1468.00
2023-04-28T10:22:43.590Z,1473.00
2023-04-28T10:23:42.676Z,1480.00
2023-04-28T10:24:42.705Z,1492.00
2023-04-28T10:25:43.780Z,1494.00
2023-04-28T10:26:43.811Z,1506.00
2023-04-28T10:27:43.867Z,1525.00
2023-04-28T10:28:43.647Z,1530.00
2023-04-28T10:29:42.942Z,1529.00
2023-04-28T10:30:43.975Z,1528.00
2023-04-28T10:31:44.101Z,1532.00
2023-04-28T10:32:44.048Z,1534.00
2023-04-28T10:33:43.092Z,1538.00
2023-04-28T10:34:43.150Z,1548.00
2023-04-28T10:35:44.146Z,1562.00
2023-04-28T10:36:43.165Z,1570.00
2023-04-28T10:37:43.225Z,1583.00
2023-04-28T10:38:44.234Z,1584.00
2023-04-28T10:39:43.308Z,1591.00
2023-04-28T10:40:43.283Z,1607.00
2023-04-28T10:41:44.312Z,1614.00
2023-04-28T10:42:44.325Z,1620.00
2023-04-28T10:43:44.363Z,1629.00
2023-04-28T10:44:44.384Z,1651.00
2023-04-28T10:45:44.447Z,1649.00
2023-04-28T10:46:43.527Z,1652.00
2023-04-28T10:47:43.612Z,1653.00
2023-04-28T10:48:44.564Z,1646.00
2023-04-28T10:49:44.636Z,1634.00
2023-04-28T10:50:44.708Z,1618.00
2023-04-28T10:51:44.792Z,1601.00
2023-04-28T10:52:44.819Z,1587.00
2023-04-28T10:53:45.265Z,1567.00
2023-04-28T10:54:44.919Z,1542.00
2023-04-28T10:55:45.010Z,1519.00
2023-04-28T10:56:44.004Z,1495.00
2023-04-28T10:57:44.997Z,1469.00
2023-04-28T10:58:43.999Z,1392.00
2023-04-28T10:59:44.978Z,1391.00
2023-04-28T11:00:44.000Z,1374.00
2023-04-28T11:01:45.045Z,1350.00
2023-04-28T11:02:45.335Z,1273.00
2023-04-28T11:03:45.158Z,1283.00
2023-04-28T11:04:44.227Z,1278.00
2023-04-28T11:05:44.019Z,1249.00
2023-04-28T11:06:44.047Z,1235.00
2023-04-28T11:07:45.039Z,1216.00
2023-04-28T11:08:45.048Z,1201.00
2023-04-28T11:09:45.043Z,1185.00
2023-04-28T11:10:45.052Z,1150.00
2023-04-28T11:11:44.097Z,1138.00
2023-04-28T11:12:44.094Z,1132.00
2023-04-28T11:13:45.113Z,1125.00
2023-04-28T11:14:44.129Z,1114.00
2023-04-28T11:15:44.165Z,1104.00
2023-04-28T11:16:45.311Z,1098.00
2023-04-28T11:17:45.218Z,1091.00
2023-04-28T11:18:45.241Z,1079.00
2023-04-28T11:19:45.382Z,1072.00
2023-04-28T11:20:45.336Z,1057.00
2023-04-28T11:21:44.342Z,1035.00
2023-04-28T11:22:45.436Z,1030.00
2023-04-28T11:23:44.398Z,1007.00
2023-04-28T11:24:44.448Z,1009.00
2023-04-28T11:25:45.521Z,972.00
2023-04-28T11:26:44.536Z,962.00
2023-04-28T11:27:45.601Z,943.00
2023-04-28T11:28:45.628Z,936.00
2023-04-28T11:29:44.658Z,935.00
2023-04-28T11:30:44.700Z,928.00
2023-04-28T11:31:45.837Z,912.00
2023-04-28T11:32:44.811Z,896.00
2023-04-28T11:33:44.841Z,888.00
2023-04-28T11:34:44.875Z,889.00
2023-04-28T11:35:45.984Z,854.00
2023-04-28T11:36:46.003Z,850.00
2023-04-28T11:37:46.024Z,996.00
2023-04-28T11:38:45.129Z,931.00
2023-04-28T11:39:46.105Z,831.00
2023-04-28T11:40:46.174Z,816.00
2023-04-28T11:41:46.243Z,827.00
2023-04-28T11:42:46.282Z,838.00
2023-04-28T11:43:47.354Z,841.00
2023-04-28T11:44:46.391Z,845.00
2023-04-28T11:45:45.527Z,848.00
2023-04-28T11:46:45.476Z,850.00
2023-04-28T11:47:45.538Z,850.00
2023-04-28T11:48:46.551Z,843.00
2023-04-28T11:49:46.801Z,835.00
2023-04-28T11:50:45.696Z,826.00
2023-04-28T11:51:45.694Z,817.00
2023-04-28T11:52:46.728Z,812.00
2023-04-28T11:53:46.785Z,813.00
2023-04-28T11:54:45.840Z,814.00
2023-04-28T11:55:46.903Z,740.00
2023-04-28T11:56:46.971Z,733.00
2023-04-28T11:57:46.019Z,738.00
2023-04-28T11:58:47.071Z,733.00
2023-04-28T11:59:46.662Z,736.00
2023-04-28T12:00:47.162Z,740.00
2023-04-28T12:01:47.193Z,743.00
2023-04-28T12:02:47.518Z,744.00
2023-04-28T12:03:47.440Z,747.00
2023-04-28T12:04:47.334Z,747.00
2023-04-28T12:05:47.403Z,748.00
2023-04-28T12:06:47.427Z,747.00
2023-04-28T12:07:47.441Z,744.00
2023-04-28T12:08:46.477Z,740.00
2023-04-28T12:09:47.515Z,737.00
2023-04-28T12:10:47.581Z,734.00
2023-04-28T12:11:47.587Z,735.00
2023-04-28T12:12:52.498Z,732.00
2023-04-28T12:13:47.604Z,730.00
2023-04-28T12:14:47.602Z,730.00
2023-04-28T12:15:47.687Z,730.00
2023-04-28T12:16:47.586Z,731.00
2023-04-28T12:17:47.673Z,733.00
2023-04-28T12:18:46.580Z,735.00
2023-04-28T12:19:47.553Z,734.00
2023-04-28T12:20:47.570Z,738.00
2023-04-28T12:21:47.557Z,740.00
2023-04-28T12:22:47.557Z,740.00
2023-04-28T12:23:46.527Z,743.00
2023-04-28T12:24:47.512Z,714.00
2023-04-28T12:25:47.507Z,644.00
2023-04-28T12:26:47.506Z,640.00
2023-04-28T12:27:47.490Z,640.00
2023-04-28T12:28:47.489Z,631.00
2023-04-28T12:29:47.491Z,626.00
2023-04-28T12:30:46.508Z,615.00
2023-04-28T12:31:47.550Z,604.00
2023-04-28T12:32:46.500Z,595.00
2023-04-28T12:33:46.444Z,590.00
2023-04-28T12:34:47.486Z,584.00
2023-04-28T12:35:47.437Z,582.00
2023-04-28T12:36:46.449Z,577.00
2023-04-28T12:37:47.429Z,572.00
2023-04-28T12:38:46.406Z,566.00
2023-04-28T12:39:47.510Z,563.00
2023-04-28T12:40:47.398Z,559.00
2023-04-28T12:41:46.398Z,554.00
2023-04-28T12:42:47.396Z,553.00
2023-04-28T12:43:46.380Z,549.00
2023-04-28T12:44:46.380Z,541.00
2023-04-28T12:45:47.425Z,534.00
2023-04-28T12:46:46.369Z,531.00
2023-04-28T12:47:46.467Z,534.00
2023-04-28T12:48:47.356Z,524.00
2023-04-28T12:49:46.706Z,526.00
2023-04-28T12:50:46.397Z,526.00
2023-04-28T12:51:47.413Z,528.00
2023-04-28T12:52:46.466Z,543.00
2023-04-28T12:53:46.502Z,580.00
2023-04-28T12:54:47.539Z,587.00
2023-04-28T12:55:46.565Z,588.00
2023-04-28T12:56:47.581Z,595.00
2023-04-28T12:57:47.556Z,602.00
2023-04-28T12:58:47.560Z,609.00
2023-04-28T12:59:47.580Z,618.00
2023-04-28T13:00:46.591Z,627.00
2023-04-28T13:01:47.688Z,630.00
2023-04-28T13:02:46.805Z,632.00
2023-04-28T13:03:48.062Z,632.00
2023-04-28T13:04:46.916Z,634.00
2023-04-28T13:05:47.799Z,632.00
2023-04-28T13:06:47.853Z,635.00
2023-04-28T13:07:47.903Z,637.00
2023-04-28T13:08:47.971Z,638.00
2023-04-28T13:09:48.306Z,642.00
2023-04-28T13:10:47.088Z,641.00
2023-04-28T13:11:47.144Z,642.00
2023-04-28T13:12:47.181Z,639.00
2023-04-28T13:13:48.258Z,641.00
2023-04-28T13:14:47.306Z,641.00
2023-04-28T13:15:47.466Z,640.00
2023-04-28T13:16:47.472Z,639.00
2023-04-28T13:17:47.500Z,639.00
2023-04-28T13:18:47.535Z,638.00
2023-04-28T13:19:48.674Z,635.00
2023-04-28T13:20:48.642Z,634.00
2023-04-28T13:21:47.691Z,634.00
2023-04-28T13:22:47.762Z,637.00
2023-04-28T13:23:48.803Z,635.00
2023-04-28T13:24:48.873Z,633.00
2023-04-28T13:25:48.939Z,632.00
2023-04-28T13:26:49.022Z,633.00
2023-04-28T13:27:49.051Z,632.00
2023-04-28T13:28:49.135Z,629.00
2023-04-28T13:29:48.163Z,629.00
2023-04-28T13:30:49.210Z,629.00
2023-04-28T13:31:49.315Z,628.00
2023-04-28T13:32:49.371Z,631.00
2023-04-28T13:33:48.384Z,629.00
2023-04-28T13:34:48.840Z,629.00
2023-04-28T13:35:48.509Z,631.00
2023-04-28T13:36:49.554Z,633.00
2023-04-28T13:37:49.616Z,634.00
2023-04-28T13:38:48.673Z,634.00
2023-04-28T13:39:48.734Z,634.00
2023-04-28T13:40:48.802Z,633.00
2023-04-28T13:41:48.854Z,632.00
2023-04-28T13:42:49.914Z,632.00
2023-04-28T13:43:48.969Z,631.00
2023-04-28T13:44:49.039Z,632.00
2023-04-28T13:45:50.122Z,636.00
2023-04-28T13:46:50.144Z,636.00
2023-04-28T13:47:49.232Z,635.00
2023-04-28T13:48:49.258Z,635.00
2023-04-28T13:49:50.314Z,632.00
2023-04-28T13:50:50.394Z,631.00
2023-04-28T13:51:50.440Z,631.00
2023-04-28T13:52:50.494Z,632.00
2023-04-28T13:53:50.558Z,632.00
2023-04-28T13:54:50.604Z,634.00
2023-04-28T13:55:50.108Z,635.00
2023-04-28T13:56:49.735Z,639.00
2023-04-28T13:57:49.795Z,638.00
2023-04-28T13:58:50.831Z,637.00
2023-04-28T13:59:50.898Z,637.00
2023-04-28T14:00:49.996Z,637.00
2023-04-28T14:01:50.133Z,638.00
2023-04-28T14:02:51.186Z,639.00
2023-04-28T14:03:50.327Z,638.00
2023-04-28T14:04:50.590Z,637.00
2023-04-28T14:05:51.262Z,635.00
2023-04-28T14:06:50.329Z,635.00
2023-04-28T14:07:51.346Z,633.00
2023-04-28T14:08:51.400Z,634.00
2023-04-28T14:09:51.473Z,633.00
2023-04-28T14:10:51.526Z,633.00
2023-04-28T14:11:50.583Z,633.00
2023-04-28T14:12:51.657Z,634.00
2023-04-28T14:13:50.693Z,633.00
2023-04-28T14:14:51.766Z,633.00
2023-04-28T14:15:58.974Z,633.00
2023-04-28T14:16:51.884Z,636.00
2023-04-28T14:17:50.880Z,640.00
2023-04-28T14:18:50.808Z,643.00
2023-04-28T14:19:51.808Z,644.00
2023-04-28T14:20:50.797Z,647.00
2023-04-28T14:21:51.793Z,650.00
2023-04-28T14:22:50.814Z,651.00
2023-04-28T14:23:51.776Z,653.00
2023-04-28T14:24:50.754Z,654.00
2023-04-28T14:25:50.757Z,654.00
2023-04-28T14:26:51.740Z,653.00
2023-04-28T14:27:50.744Z,654.00
2023-04-28T14:28:51.751Z,657.00
2023-04-28T14:29:51.722Z,658.00
2023-04-28T14:30:50.762Z,660.00
2023-04-28T14:31:51.719Z,658.00
2023-04-28T14:32:51.733Z,660.00
2023-04-28T14:33:50.695Z,657.00
2023-04-28T14:34:50.693Z,656.00
2023-04-28T14:35:50.682Z,658.00
2023-04-28T14:36:50.691Z,654.00
2023-04-28T14:37:50.672Z,652.00
2023-04-28T14:38:50.688Z,649.00
2023-04-28T14:39:51.658Z,649.00
2023-04-28T14:40:51.694Z,651.00
2023-04-28T14:41:50.775Z,650.00
2023-04-28T14:42:51.797Z,651.00
2023-04-28T14:43:50.842Z,651.00
2023-04-28T14:44:54.483Z,652.00
2023-04-28T14:45:50.910Z,655.00
2023-04-28T14:46:50.890Z,656.00
2023-04-28T14:47:51.969Z,656.00
2023-04-28T14:48:50.861Z,659.00
2023-04-28T14:49:50.864Z,657.00
2023-04-28T14:50:51.837Z,660.00
2023-04-28T14:51:50.843Z,662.00
2023-04-28T14:52:51.862Z,662.00
2023-04-28T14:53:51.839Z,659.00
2023-04-28T14:54:50.855Z,659.00
2023-04-28T14:55:50.826Z,658.00
2023-04-28T14:56:51.804Z,658.00
2023-04-28T14:57:51.809Z,658.00
2023-04-28T14:58:50.815Z,658.00
2023-04-28T14:59:51.801Z,660.00
2023-04-28T15:00:51.800Z,663.00
2023-04-28T15:01:51.792Z,662.00
2023-04-28T15:02:50.956Z,663.00
2023-04-28T15:03:51.911Z,664.00
2023-04-28T15:04:51.235Z,665.00
2023-04-28T15:05:51.763Z,665.00
2023-04-28T15:06:51.739Z,666.00
2023-04-28T15:07:50.729Z,668.00
2023-04-28T15:08:51.720Z,669.00
2023-04-28T15:09:50.726Z,670.00
2023-04-28T15:10:51.801Z,670.00
2023-04-28T15:11:51.873Z,672.00
2023-04-28T15:12:51.900Z,669.00
2023-04-28T15:13:51.960Z,670.00
2023-04-28T15:14:51.217Z,670.00
2023-04-28T15:15:52.139Z,671.00
2023-04-28T15:16:52.164Z,671.00
2023-04-28T15:17:52.255Z,671.00
2023-04-28T15:18:51.270Z,670.00
2023-04-28T15:19:51.345Z,668.00
2023-04-28T15:20:52.404Z,667.00
2023-04-28T15:21:51.461Z,669.00
2023-04-28T15:22:52.528Z,670.00
2023-04-28T15:23:51.604Z,672.00
2023-04-28T15:24:51.653Z,670.00
2023-04-28T15:25:51.714Z,669.00
2023-04-28T15:26:51.796Z,666.00
2023-04-28T15:27:51.844Z,666.00
2023-04-28T15:28:51.905Z,665.00
2023-04-28T15:29:52.970Z,665.00
2023-04-28T17:39:16.338Z,658.00
2023-04-28T17:40:30.639Z,655.00
2023-04-28T17:41:14.999Z,658.00
2023-04-28T17:43:34.500Z,648.00
2023-04-28T17:47:05.275Z,676.00
2023-04-28T17:49:24.315Z,681.00
2023-04-28T17:50:25.618Z,683.00
2023-04-28T18:01:54.085Z,661.00
2023-04-28T18:02:55.260Z,660.00
2023-04-28T18:03:55.035Z,660.00
2023-04-28T18:09:57.462Z,683.00
2023-04-28T18:10:57.107Z,687.00
2023-04-28T18:13:29.201Z,679.00
2023-04-28T18:14:29.923Z,673.00
2023-04-28T18:15:29.203Z,674.00
2023-04-28T18:16:29.844Z,678.00
2023-04-28T18:21:03.812Z,685.00
2023-04-28T18:22:05.070Z,679.00
2023-04-28T18:23:04.690Z,671.00
2023-04-28T18:24:04.653Z,672.00
2023-04-28T18:25:03.751Z,673.00
2023-04-28T18:26:04.779Z,674.00
2023-04-28T18:27:03.783Z,674.00
2023-04-28T18:28:03.787Z,671.00
2023-04-28T18:29:04.840Z,668.00
2023-04-28T18:42:28.473Z,673.00
2023-04-28T18:43:28.936Z,672.00
2023-04-28T18:44:28.506Z,674.00
2023-04-28T18:45:29.477Z,673.00
2023-04-28T18:46:29.562Z,672.00
2023-04-28T18:47:29.661Z,671.00
2023-04-28T18:51:07.585Z,668.00
2023-04-28T18:52:08.968Z,666.00
2023-04-28T18:53:07.581Z,666.00
2023-04-28T18:54:07.530Z,670.00
2023-04-28T18:55:07.543Z,672.00
2023-04-28T18:56:08.627Z,673.00
2023-04-28T19:11:38.416Z,665.00
2023-04-28T19:13:57.557Z,648.00
2023-04-28T19:14:57.883Z,653.00
2023-04-28T19:15:58.569Z,652.00
2023-04-28T19:16:57.455Z,658.00
2023-04-28T19:17:57.515Z,662.00
2023-04-28T19:18:57.467Z,660.00
2023-04-28T19:19:57.422Z,660.00
2023-04-28T19:32:48.747Z,651.00
2023-04-28T19:35:07.898Z,638.00
2023-04-28T19:36:07.879Z,637.00
2023-04-28T19:37:08.966Z,647.00
2023-04-28T19:48:09.799Z,665.00
2023-04-28T19:58:36.427Z,655.00
2023-04-28T20:01:19.976Z,655.00
2023-04-28T20:22:30.434Z,666.00
2023-04-28T20:23:30.603Z,667.00
2023-04-28T20:24:30.264Z,668.00
2023-04-28T20:26:49.700Z,659.00
2023-04-28T20:32:53.274Z,661.00
2023-04-28T20:33:54.257Z,662.00
2023-04-28T20:34:54.327Z,662.00
2023-04-28T20:37:12.942Z,658.00
2023-04-28T20:39:31.664Z,645.00
2023-04-28T20:40:32.928Z,648.00
2023-04-28T20:41:32.509Z,652.00
2023-04-28T20:43:50.561Z,642.00
2023-04-28T20:45:06.475Z,648.00
2023-04-28T20:46:09.815Z,644.00
2023-04-28T20:48:29.566Z,646.00
2023-04-28T20:53:56.400Z,654.00
2023-04-28T21:02:13.167Z,666.00
2023-04-28T21:04:32.332Z,658.00
2023-04-28T21:07:33.275Z,665.00
2023-04-28T21:08:33.255Z,667.00
2023-04-28T21:17:42.721Z,660.00
2023-04-28T21:18:42.805Z,664.00
2023-04-28T21:19:43.608Z,664.00
2023-04-28T21:20:43.622Z,661.00
2023-04-28T21:21:42.527Z,661.00
2023-04-28T21:32:28.759Z,667.00
2023-04-28T21:34:48.101Z,650.00
2023-04-28T21:35:49.304Z,649.00
2023-04-28T21:36:48.866Z,653.00
2023-04-28T21:37:48.867Z,650.00
2023-04-28T21:38:48.842Z,653.00
2023-04-28T21:41:07.246Z,649.00
2023-04-28T21:43:26.073Z,653.00
2023-04-28T21:45:45.445Z,663.00
2023-04-28T21:48:04.548Z,643.00
2023-04-28T21:49:04.811Z,648.00
2023-04-28T21:50:05.356Z,652.00
2023-04-28T21:52:23.583Z,651.00
2023-04-28T21:53:23.397Z,657.00
2023-04-28T21:54:24.596Z,652.00
2023-04-28T21:56:42.672Z,646.00
2023-04-28T21:59:03.376Z,645.00
2023-04-28T22:01:22.554Z,643.00
2023-04-28T22:03:41.987Z,653.00
2023-04-28T22:06:01.011Z,633.00
2023-04-28T22:07:01.735Z,637.00
2023-04-28T22:09:30.643Z,650.00
2023-04-28T22:10:32.582Z,652.00
2023-04-28T23:16:21.466Z,647.00
2023-04-28T23:18:40.864Z,643.00
2023-04-28T23:24:34.613Z,650.00
2023-04-28T23:25:35.461Z,649.00
2023-04-28T23:26:35.649Z,649.00
2023-04-28T23:27:35.811Z,651.00
2023-04-28T23:28:34.516Z,653.00
2023-04-28T23:30:53.638Z,640.00
2023-04-28T23:31:53.809Z,641.00
2023-04-28T23:34:12.811Z,642.00
2023-04-28T23:36:32.326Z,640.00
2023-04-28T23:42:12.256Z,649.00
2023-04-28T23:43:12.840Z,649.00